createdAt,value
2019-03-29T00:01:05.051Z,92.5
2019-03-29T00:02:15.224Z,92.79
2019-03-29T00:03:25.356Z,92.5
2019-03-29T00:04:35.463Z,92.88
2019-03-29T00:05:45.629Z,92.98
2019-03-29T00:06:55.766Z,92.5
2019-03-29T00:08:06.957Z,92.88
2019-03-29T00:09:17.038Z,92.79
2019-03-29T00:10:27.155Z,92.98
2019-03-29T00:11:37.320Z,92.88
2019-03-29T00:12:47.450Z,92.32
2019-03-29T00:13:57.565Z,92.12
2019-03-29T00:15:08.060Z,92.22
2019-03-29T00:16:18.285Z,92.41
2019-03-29T00:17:28.952Z,92.32
2019-03-29T00:18:39.078Z,92.65
2019-03-29T00:19:49.194Z,92.26
2019-03-29T00:20:59.632Z,92.26
2019-03-29T00:22:09.754Z,92.41
2019-03-29T00:23:19.876Z,92.41
2019-03-29T00:24:30.773Z,91.64
2019-03-29T00:25:40.876Z,91.6
2019-03-29T00:26:50.998Z,92.03
2019-03-29T00:28:01.163Z,92.03
2019-03-29T00:29:11.285Z,92.07
2019-03-29T00:30:22.106Z,91.88
2019-03-29T00:31:32.307Z,91.69
2019-03-29T00:32:43.051Z,91.5
2019-03-29T00:33:53.185Z,91.64
2019-03-29T00:35:03.314Z,91.5
2019-03-29T00:36:13.702Z,91.69
2019-03-29T00:37:23.822Z,91.88
2019-03-29T00:38:33.941Z,91.46
2019-03-29T00:39:44.041Z,91.78
2019-03-29T00:40:54.140Z,91.78
2019-03-29T00:42:04.555Z,91.69
2019-03-29T00:43:14.697Z,91.5
2019-03-29T00:44:25.032Z,91.21
2019-03-29T00:45:35.155Z,91.5
2019-03-29T00:46:45.042Z,91.6
2019-03-29T00:47:55.381Z,91.41
2019-03-29T00:49:06.159Z,91.12
2019-03-29T00:50:16.287Z,91.41
2019-03-29T00:51:27.312Z,91.78
2019-03-29T00:52:37.452Z,91.88
2019-03-29T00:53:48.279Z,91.69
2019-03-29T00:54:58.399Z,91.78
2019-03-29T00:56:08.189Z,91.6
2019-03-29T00:57:18.621Z,91.5
2019-03-29T00:58:28.725Z,91.6
2019-03-29T00:59:38.856Z,91.41
2019-03-29T01:00:49.019Z,91.88
2019-03-29T01:01:59.150Z,92.07
2019-03-29T01:03:09.282Z,91.5
2019-03-29T01:04:19.144Z,91.78
2019-03-29T01:05:29.263Z,91.69
2019-03-29T01:06:39.489Z,91.6
2019-03-29T01:07:49.613Z,91.69
2019-03-29T01:09:13.828Z,91.55
2019-03-29T01:10:24.731Z,91.41
2019-03-29T01:11:34.849Z,91.55
2019-03-29T01:12:46.358Z,91.55
2019-03-29T01:13:56.205Z,91.69
2019-03-29T01:15:06.314Z,91.55
2019-03-29T01:16:17.107Z,91.6
2019-03-29T01:17:27.235Z,91.64
2019-03-29T01:18:38.023Z,91.69
2019-03-29T01:19:48.382Z,91.6
2019-03-29T01:20:59.255Z,91.88
2019-03-29T01:22:09.377Z,91.69
2019-03-29T01:23:19.581Z,91.98
2019-03-29T01:24:29.730Z,91.98
2019-03-29T01:25:39.840Z,91.69
2019-03-29T01:26:49.944Z,91.55
2019-03-29T01:28:00.769Z,91.78
2019-03-29T01:29:10.885Z,91.83
2019-03-29T01:30:21.098Z,91.55
2019-03-29T01:31:31.209Z,91.6
2019-03-29T01:32:41.310Z,91.64
2019-03-29T01:33:51.445Z,91.6
2019-03-29T01:35:01.558Z,91.83
2019-03-29T01:36:12.443Z,91.78
2019-03-29T01:37:22.660Z,91.78
2019-03-29T01:38:32.759Z,91.27
2019-03-29T01:39:43.015Z,91.31
2019-03-29T01:40:53.150Z,91.27
2019-03-29T01:42:04.016Z,91.6
2019-03-29T01:43:14.146Z,91.31
2019-03-29T01:44:24.280Z,91.36
2019-03-29T01:45:35.689Z,91.27
2019-03-29T01:46:45.904Z,91.27
2019-03-29T01:47:56.114Z,91.36
2019-03-29T01:49:06.293Z,91.83
2019-03-29T01:50:16.420Z,91.36
2019-03-29T01:51:27.212Z,91.36
2019-03-29T01:52:38.019Z,91.36
2019-03-29T01:53:48.923Z,91.55
2019-03-29T01:54:59.812Z,90.79
2019-03-29T01:56:09.951Z,91.46
2019-03-29T01:57:20.302Z,91.17
2019-03-29T01:58:30.407Z,91.36
2019-03-29T01:59:40.526Z,91.46
2019-03-29T02:00:50.940Z,91.27
2019-03-29T02:02:01.122Z,91.46
2019-03-29T02:03:11.249Z,91.17
2019-03-29T02:04:21.369Z,91.36
2019-03-29T02:05:31.728Z,91.27
2019-03-29T02:06:41.841Z,91.27
2019-03-29T02:07:53.392Z,91.17
2019-03-29T02:09:04.347Z,91.46
2019-03-29T02:10:15.210Z,91.17
2019-03-29T02:11:25.833Z,91.36
2019-03-29T02:12:35.841Z,91.64
2019-03-29T02:13:45.693Z,91.46
2019-03-29T02:14:57.195Z,91.55
2019-03-29T02:16:07.041Z,91.46
2019-03-29T02:17:17.159Z,91.46
2019-03-29T02:18:27.552Z,91.64
2019-03-29T02:19:37.666Z,91.64
2019-03-29T02:20:47.777Z,91.46
2019-03-29T02:21:58.121Z,91.55
2019-03-29T02:23:08.280Z,91.64
2019-03-29T02:24:18.413Z,91.64
2019-03-29T02:25:29.284Z,91.46
2019-03-29T02:26:39.369Z,91.64
2019-03-29T02:27:49.475Z,91.46
2019-03-29T02:29:00.691Z,91.55
2019-03-29T02:30:10.911Z,91.55
2019-03-29T02:31:25.345Z,91.36
2019-03-29T02:32:36.985Z,91.83
2019-03-29T02:33:48.445Z,91.93
2019-03-29T02:34:58.713Z,92.12
2019-03-29T02:36:09.578Z,91.64
2019-03-29T02:37:19.678Z,92.12
2019-03-29T02:38:29.800Z,91.74
2019-03-29T02:39:57.725Z,91.64
2019-03-29T02:41:08.370Z,91.46
2019-03-29T02:42:18.494Z,92.32
2019-03-29T02:43:28.602Z,92.5
2019-03-29T02:44:38.716Z,92.41
2019-03-29T02:45:48.823Z,92.22
2019-03-29T02:47:00.629Z,92.41
2019-03-29T02:48:10.760Z,92.41
2019-03-29T02:49:22.296Z,92.22
2019-03-29T02:50:32.407Z,92.12
2019-03-29T02:51:44.525Z,92.32
2019-03-29T02:52:54.672Z,92.12
2019-03-29T02:54:04.790Z,92.32
2019-03-29T02:55:14.961Z,92.32
2019-03-29T02:56:25.098Z,92.22
2019-03-29T02:57:35.226Z,92.12
2019-03-29T02:58:45.325Z,92.12
2019-03-29T02:59:55.079Z,92.32
2019-03-29T03:01:05.216Z,92.32
2019-03-29T03:02:15.340Z,92.32
2019-03-29T03:03:29.524Z,92.32
2019-03-29T03:04:39.646Z,92.5
2019-03-29T03:05:49.768Z,91.74
2019-03-29T03:06:59.662Z,91.83
2019-03-29T03:08:09.784Z,92.41
2019-03-29T03:09:19.972Z,91.83
2019-03-29T03:10:30.087Z,91.64
2019-03-29T03:11:40.418Z,91.83
2019-03-29T03:12:50.523Z,91.64
2019-03-29T03:14:00.677Z,91.55
2019-03-29T03:15:10.792Z,91.55
2019-03-29T03:16:20.923Z,91.55
2019-03-29T03:17:31.068Z,91.55
2019-03-29T03:18:41.190Z,92.41
2019-03-29T03:19:51.322Z,92.41
2019-03-29T03:21:01.489Z,92.32
2019-03-29T03:22:11.355Z,91.74
2019-03-29T03:23:21.478Z,91.46
2019-03-29T03:24:31.594Z,91.55
2019-03-29T03:25:41.712Z,91.36
2019-03-29T03:26:51.827Z,91.55
2019-03-29T03:28:01.962Z,91.64
2019-03-29T03:29:12.120Z,91.36
2019-03-29T03:30:22.249Z,91.64
2019-03-29T03:31:32.524Z,91.55
2019-03-29T03:32:42.780Z,91.36
2019-03-29T03:33:52.978Z,91.46
2019-03-29T03:35:03.472Z,91.55
2019-03-29T03:36:13.627Z,91.64
2019-03-29T03:37:23.566Z,91.64
2019-03-29T03:38:33.686Z,91.55
2019-03-29T03:39:43.853Z,91.74
2019-03-29T03:40:53.964Z,91.74
2019-03-29T03:42:04.095Z,91.64
2019-03-29T03:43:14.333Z,91.55
2019-03-29T03:44:24.524Z,91.64
2019-03-29T03:45:34.629Z,91.64
2019-03-29T03:46:44.750Z,91.46
2019-03-29T03:47:54.944Z,91.46
2019-03-29T03:49:05.061Z,91.46
2019-03-29T03:50:15.184Z,91.64
2019-03-29T03:51:25.301Z,91.46
2019-03-29T03:52:35.554Z,91.74
2019-03-29T03:53:45.798Z,91.46
2019-03-29T03:54:55.916Z,91.83
2019-03-29T03:56:05.680Z,91.64
2019-03-29T03:57:15.787Z,91.64
2019-03-29T03:58:25.891Z,91.46
2019-03-29T03:59:36.032Z,91.55
2019-03-29T04:00:46.156Z,91.93
2019-03-29T04:01:56.273Z,91.74
2019-03-29T04:03:06.282Z,91.55
2019-03-29T04:04:16.410Z,91.55
2019-03-29T04:05:26.526Z,92.41
2019-03-29T04:06:36.664Z,92.41
2019-03-29T04:07:46.784Z,92.22
2019-03-29T04:08:56.657Z,92.12
2019-03-29T04:10:06.836Z,92.12
2019-03-29T04:11:16.708Z,92.22
2019-03-29T04:12:26.860Z,92.22
2019-03-29T04:13:37.077Z,92.32
2019-03-29T04:14:46.941Z,92.41
2019-03-29T04:15:57.103Z,91.55
2019-03-29T04:17:07.230Z,92.03
2019-03-29T04:18:18.677Z,91.74
2019-03-29T04:19:28.786Z,91.93
2019-03-29T04:20:38.564Z,91.46
2019-03-29T04:21:48.691Z,91.93
2019-03-29T04:22:58.818Z,91.55
2019-03-29T04:24:08.988Z,91.55
2019-03-29T04:25:18.840Z,91.46
2019-03-29T04:26:28.986Z,91.36
2019-03-29T04:27:39.104Z,92.03
2019-03-29T04:29:05.566Z,91.64
2019-03-29T04:30:15.696Z,92.03
2019-03-29T04:31:25.308Z,91.55
2019-03-29T04:32:35.434Z,91.64
2019-03-29T04:33:45.573Z,92.32
2019-03-29T04:34:55.694Z,92.41
2019-03-29T04:36:06.065Z,92.5
2019-03-29T04:37:16.273Z,91.74
2019-03-29T04:38:26.419Z,91.74
2019-03-29T04:39:36.554Z,91.74
2019-03-29T04:40:46.710Z,91.46
2019-03-29T04:41:56.847Z,91.64
2019-03-29T04:43:06.622Z,92.41
2019-03-29T04:44:16.746Z,92.41
2019-03-29T04:45:26.881Z,92.22
2019-03-29T04:46:37.016Z,92.12
2019-03-29T04:47:47.179Z,92.6
2019-03-29T04:48:57.307Z,92.41
2019-03-29T04:50:07.445Z,92.03
2019-03-29T04:51:17.554Z,91.93
2019-03-29T04:52:27.680Z,92.32
2019-03-29T04:53:37.790Z,92.41
2019-03-29T04:54:47.908Z,92.41
2019-03-29T04:55:58.044Z,92.22
2019-03-29T04:57:08.234Z,92.32
2019-03-29T04:58:18.336Z,92.22
2019-03-29T04:59:28.466Z,92.22
2019-03-29T05:00:38.586Z,92.12
2019-03-29T05:01:48.718Z,92.22
2019-03-29T05:02:58.872Z,92.12
2019-03-29T05:04:09.013Z,92.6
2019-03-29T05:05:18.866Z,92.98
2019-03-29T05:06:28.982Z,92.32
2019-03-29T05:07:39.997Z,92.5
2019-03-29T05:08:50.217Z,92.6
2019-03-29T05:10:00.475Z,92.79
2019-03-29T05:11:23.354Z,92.98
2019-03-29T05:12:33.471Z,92.69
2019-03-29T05:13:43.666Z,92.12
2019-03-29T05:14:53.849Z,92.32
2019-03-29T05:16:03.984Z,92.41
2019-03-29T05:17:14.109Z,92.41
2019-03-29T05:18:24.219Z,92.12
2019-03-29T05:19:34.344Z,92.5
2019-03-29T05:20:47.578Z,92.6
2019-03-29T05:21:57.719Z,92.6
2019-03-29T05:23:07.832Z,92.6
2019-03-29T05:24:18.031Z,92.32
2019-03-29T05:25:28.176Z,92.32
2019-03-29T05:26:38.437Z,92.6
2019-03-29T05:27:48.616Z,92.32
2019-03-29T05:28:58.784Z,92.5
2019-03-29T05:30:08.909Z,92.41
2019-03-29T05:31:19.020Z,92.12
2019-03-29T05:32:29.138Z,92.32
2019-03-29T05:33:39.261Z,92.12
2019-03-29T05:34:49.371Z,92.22
2019-03-29T05:35:59.489Z,92.12
2019-03-29T05:37:09.589Z,92.32
2019-03-29T05:38:19.463Z,92.32
2019-03-29T05:39:29.699Z,92.22
2019-03-29T05:40:39.802Z,91.64
2019-03-29T05:41:49.952Z,91.74
2019-03-29T05:42:59.836Z,91.93
2019-03-29T05:44:09.954Z,91.36
2019-03-29T05:45:20.079Z,91.55
2019-03-29T05:46:30.234Z,91.36
2019-03-29T05:47:40.339Z,91.55
2019-03-29T05:48:50.440Z,91.83
2019-03-29T05:50:00.560Z,91.55
2019-03-29T05:51:10.685Z,91.74
2019-03-29T05:52:20.819Z,91.83
2019-03-29T05:53:30.938Z,91.64
2019-03-29T05:54:41.038Z,91.78
2019-03-29T05:55:51.151Z,91.27
2019-03-29T05:57:01.291Z,91.41
2019-03-29T05:58:11.610Z,91.17
2019-03-29T05:59:21.715Z,91.64
2019-03-29T06:00:31.856Z,91.83
2019-03-29T06:01:42.958Z,91.46
2019-03-29T06:02:53.075Z,92.03
2019-03-29T06:04:03.203Z,91.27
2019-03-29T06:05:13.320Z,91.64
2019-03-29T06:06:23.436Z,91.93
2019-03-29T06:07:33.577Z,91.83
2019-03-29T06:08:43.742Z,91.41
2019-03-29T06:09:53.926Z,91.5
2019-03-29T06:11:04.061Z,91.27
2019-03-29T06:12:14.172Z,90.98
2019-03-29T06:13:24.283Z,91.12
2019-03-29T06:14:34.421Z,91.55
2019-03-29T06:15:44.536Z,91.17
2019-03-29T06:16:54.646Z,91.02
2019-03-29T06:18:04.787Z,90.93
2019-03-29T06:19:14.907Z,91.12
2019-03-29T06:20:25.011Z,90.98
2019-03-29T06:21:35.128Z,90.83
2019-03-29T06:22:45.276Z,91.41
2019-03-29T06:23:55.384Z,91.21
2019-03-29T06:25:05.497Z,91.21
2019-03-29T06:26:15.654Z,91.12
2019-03-29T06:27:25.801Z,91.12
2019-03-29T06:28:35.909Z,91.02
2019-03-29T06:29:46.039Z,91.31
2019-03-29T06:30:55.923Z,91.31
2019-03-29T06:32:06.065Z,91.31
2019-03-29T06:33:16.176Z,91.02
2019-03-29T06:34:26.284Z,90.73
2019-03-29T06:35:36.397Z,90.55
2019-03-29T06:36:46.516Z,90.64
2019-03-29T06:37:56.634Z,90.55
2019-03-29T06:39:06.769Z,90.83
2019-03-29T06:40:16.884Z,90.93
2019-03-29T06:41:26.994Z,90.36
2019-03-29T06:42:37.108Z,90.17
2019-03-29T06:43:47.214Z,89.88
2019-03-29T06:44:57.338Z,89.88
2019-03-29T06:46:07.462Z,89.97
2019-03-29T06:47:17.591Z,90.17
2019-03-29T06:48:27.716Z,89.59
2019-03-29T06:49:37.845Z,89.88
2019-03-29T06:50:47.747Z,89.69
2019-03-29T06:51:58.380Z,89.69
2019-03-29T06:53:08.500Z,89.4
2019-03-29T06:54:18.630Z,89.69
2019-03-29T06:55:28.748Z,89.5
2019-03-29T06:56:38.877Z,89.59
2019-03-29T06:57:49.017Z,89.5
2019-03-29T06:58:59.134Z,89.88
2019-03-29T07:00:09.247Z,89.69
2019-03-29T07:01:19.377Z,89.73
2019-03-29T07:02:29.528Z,89.12
2019-03-29T07:03:39.656Z,89.4
2019-03-29T07:04:49.779Z,89.4
2019-03-29T07:05:59.888Z,89.21
2019-03-29T07:07:09.764Z,89.21
2019-03-29T07:08:19.932Z,89.12
2019-03-29T07:09:30.063Z,89.12
2019-03-29T07:10:40.250Z,89.16
2019-03-29T07:11:50.373Z,89.5
2019-03-29T07:13:00.528Z,89.16
2019-03-29T07:14:10.671Z,88.97
2019-03-29T07:15:20.786Z,89.12
2019-03-29T07:16:30.943Z,88.68
2019-03-29T07:17:41.053Z,88.59
2019-03-29T07:18:51.175Z,88.64
2019-03-29T07:20:01.297Z,88.45
2019-03-29T07:21:23.628Z,88.78
2019-03-29T07:22:36.984Z,89.02
2019-03-29T07:23:47.113Z,89.06
2019-03-29T07:24:56.912Z,89.16
2019-03-29T07:26:07.030Z,88.87
2019-03-29T07:27:17.163Z,88.78
2019-03-29T07:28:27.275Z,88.59
2019-03-29T07:29:37.458Z,88.78
2019-03-29T07:30:47.667Z,88.87
2019-03-29T07:31:57.530Z,88.87
2019-03-29T07:33:07.658Z,89.16
2019-03-29T07:34:17.784Z,88.68
2019-03-29T07:35:28.220Z,88.87
2019-03-29T07:36:38.359Z,88.87
2019-03-29T07:37:48.509Z,88.87
2019-03-29T07:38:58.638Z,88.78
2019-03-29T07:40:08.770Z,88.2
2019-03-29T07:41:33.420Z,88.3
2019-03-29T07:42:43.541Z,87.92
2019-03-29T07:43:53.649Z,88.11
2019-03-29T07:45:03.761Z,87.82
2019-03-29T07:46:15.425Z,88.2
2019-03-29T07:47:25.575Z,88.01
2019-03-29T07:48:35.717Z,88.11
2019-03-29T07:49:48.186Z,88.3
2019-03-29T07:50:58.315Z,88.01
2019-03-29T07:52:08.453Z,87.54
2019-03-29T07:53:18.210Z,87.82
2019-03-29T07:54:28.370Z,87.92
2019-03-29T07:55:39.971Z,87.92
2019-03-29T07:56:50.098Z,88.01
2019-03-29T07:58:00.215Z,87.73
2019-03-29T07:59:10.370Z,87.73
2019-03-29T08:00:22.868Z,87.82
2019-03-29T08:01:35.829Z,87.73
2019-03-29T08:02:46.063Z,87.82
2019-03-29T08:03:56.100Z,87.73
2019-03-29T08:05:06.287Z,87.54
2019-03-29T08:06:16.399Z,87.54
2019-03-29T08:07:31.499Z,87.63
2019-03-29T08:08:41.775Z,87.73
2019-03-29T08:09:51.910Z,87.54
2019-03-29T08:11:02.260Z,87.54
2019-03-29T08:12:12.400Z,87.63
2019-03-29T08:13:22.660Z,87.63
2019-03-29T08:14:32.785Z,87.92
2019-03-29T08:15:42.912Z,87.63
2019-03-29T08:16:53.038Z,88.01
2019-03-29T08:18:04.443Z,87.73
2019-03-29T08:19:14.305Z,87.82
2019-03-29T08:20:44.255Z,87.63
2019-03-29T08:21:57.674Z,87.54
2019-03-29T08:23:07.983Z,87.63
2019-03-29T08:24:17.854Z,87.63
2019-03-29T08:25:27.963Z,86.96
2019-03-29T08:26:38.093Z,87.06
2019-03-29T08:27:48.229Z,87.06
2019-03-29T08:28:58.393Z,87.58
2019-03-29T08:30:08.656Z,87.01
2019-03-29T08:31:18.920Z,87.1
2019-03-29T08:32:29.052Z,86.82
2019-03-29T08:33:39.183Z,87.1
2019-03-29T08:34:49.326Z,86.63
2019-03-29T08:35:59.502Z,86.91
2019-03-29T08:37:09.638Z,86.91
2019-03-29T08:38:19.764Z,86.72
2019-03-29T08:39:31.057Z,86.34
2019-03-29T08:40:41.165Z,86.34
2019-03-29T08:42:02.737Z,86.43
2019-03-29T08:43:12.887Z,86.34
2019-03-29T08:44:23.012Z,86.63
2019-03-29T08:45:33.146Z,86.53
2019-03-29T08:46:43.253Z,86.63
2019-03-29T08:47:53.377Z,86.72
2019-03-29T08:49:05.266Z,86.63
2019-03-29T08:50:15.382Z,86.82
2019-03-29T08:51:25.511Z,86.43
2019-03-29T08:52:35.405Z,86.24
2019-03-29T08:53:45.655Z,86.15
2019-03-29T08:54:55.843Z,86.43
2019-03-29T08:56:05.961Z,86.43
2019-03-29T08:57:16.306Z,85.58
2019-03-29T08:58:26.430Z,85.58
2019-03-29T08:59:36.583Z,85.58
2019-03-29T09:00:46.711Z,85.77
2019-03-29T09:01:56.858Z,85.77
2019-03-29T09:03:07.016Z,85.38
2019-03-29T09:04:17.165Z,85.58
2019-03-29T09:05:29.548Z,85.48
2019-03-29T09:06:55.489Z,85.38
2019-03-29T09:08:05.600Z,85.77
2019-03-29T09:09:15.809Z,85.77
2019-03-29T09:10:25.976Z,85.67
2019-03-29T09:11:38.864Z,85.19
2019-03-29T09:12:49.199Z,85.1
2019-03-29T09:13:59.081Z,85.29
2019-03-29T09:15:09.203Z,85.19
2019-03-29T09:16:19.328Z,85.1
2019-03-29T09:17:29.479Z,84.91
2019-03-29T09:18:39.631Z,84.81
2019-03-29T09:19:49.811Z,85
2019-03-29T09:20:59.964Z,84.52
2019-03-29T09:22:10.088Z,84.43
2019-03-29T09:23:20.255Z,84.81
2019-03-29T09:24:33.243Z,84.91
2019-03-29T09:25:43.458Z,85
2019-03-29T09:26:53.699Z,84.43
2019-03-29T09:28:03.834Z,84.81
2019-03-29T09:29:14.084Z,84.72
2019-03-29T09:30:24.232Z,84.72
2019-03-29T09:31:34.378Z,84.72
2019-03-29T09:32:44.520Z,84.81
2019-03-29T09:33:58.514Z,84.62
2019-03-29T09:35:08.842Z,83.95
2019-03-29T09:36:19.084Z,84.23
2019-03-29T09:37:29.224Z,84.23
2019-03-29T09:38:39.378Z,83.99
2019-03-29T09:39:51.531Z,84.28
2019-03-29T09:41:01.993Z,84.19
2019-03-29T09:42:12.594Z,83.61
2019-03-29T09:43:36.580Z,83.8
2019-03-29T09:44:46.722Z,83.8
2019-03-29T09:45:56.868Z,83.8
2019-03-29T09:47:08.918Z,83.99
2019-03-29T09:48:19.061Z,83.33
2019-03-29T09:49:29.219Z,83.33
2019-03-29T09:50:39.355Z,83.33
2019-03-29T09:51:55.268Z,83.13
2019-03-29T09:53:05.438Z,83.13
2019-03-29T09:54:15.593Z,83.42
2019-03-29T09:55:28.286Z,83.23
2019-03-29T09:56:41.824Z,83.23
2019-03-29T09:57:53.774Z,83.23
2019-03-29T09:59:03.912Z,83.13
2019-03-29T10:00:25.029Z,83.42
2019-03-29T10:01:35.535Z,83.51
2019-03-29T10:02:45.727Z,82.94
2019-03-29T10:03:55.928Z,83.61
2019-03-29T10:05:06.067Z,82.84
2019-03-29T10:06:18.000Z,82.75
2019-03-29T10:07:28.142Z,82.84
2019-03-29T10:08:38.281Z,82.75
2019-03-29T10:09:48.427Z,82.7
2019-03-29T10:10:58.563Z,82.22
2019-03-29T10:12:08.717Z,82.22
2019-03-29T10:13:18.845Z,82.22
2019-03-29T10:14:28.711Z,81.65
2019-03-29T10:15:41.274Z,81.65
2019-03-29T10:16:54.267Z,81.93
2019-03-29T10:18:04.417Z,81.55
2019-03-29T10:19:14.173Z,81.36
2019-03-29T10:20:24.315Z,80.59
2019-03-29T10:21:36.678Z,80.59
2019-03-29T10:22:47.658Z,79.87
2019-03-29T10:23:59.138Z,79.49
2019-03-29T10:25:21.759Z,79.29
2019-03-29T10:26:35.857Z,79
2019-03-29T10:27:46.978Z,78.72
2019-03-29T10:28:57.108Z,78.43
2019-03-29T10:30:08.041Z,77.76
2019-03-29T10:31:31.468Z,78.19
2019-03-29T10:32:46.684Z,78.38
2019-03-29T10:33:58.490Z,78.38
